aviador You're here:

KBTL Decoded Metar

BATTLE CREEK in MI, USA
Report Time2017-07-21 01:53:00
UTC Time2017-07-21 02:54:43
Flight Rules vfr VFR
Wind250° at 04 kt
W.Decomp.*RWY 23: 3.7 kt HW 1.6 kt RCW
RWY 31: 2.2 kt HW 3.3 kt LCW
W.Rank250° ranks 13
Current wind is below 250° avg. (9.6)
Visibility9999 m
Phenomena:N/A
Clouds:N/A
Expected CloudBase > 800 ft AGL from Temp-Dew spread
CeilingNone
Temp24°C (ISA +11)
Dew Point22°C (89% RH)
QNH1015 hPa
Density Alt2,500 ft
Elevation951 ft
Report Wrong Elevation
Raw Report
METAR KBTL 210153Z 25004KT 10SM CLR 24/22 A2997 RMK AO2 SLP143 T02440217=

Extra information for KBTL:More info

Metar Taf Metar & Taf Last 4 Metars F.Rules Stats Wind Profile Meteogram Temp Stats Airport Information Weather charts Add Link Nearby VenuesMetar ALERT Operation Metar Decoded Social comments

AIRNAV info for KBTL